createdAt,value
2022-09-01T00:00:02.919Z,2.38
2022-09-01T00:02:31.390Z,2.00
2022-09-01T00:04:58.951Z,2.10
2022-09-01T00:07:30.137Z,2.40
2022-09-01T00:09:58.083Z,2.15
2022-09-01T00:12:25.911Z,2.10
2022-09-01T00:14:53.675Z,2.22
2022-09-01T00:17:21.610Z,2.47
2022-09-01T00:19:49.449Z,1.95
2022-09-01T00:22:16.720Z,2.03
2022-09-01T00:24:43.840Z,2.10
2022-09-01T00:27:10.993Z,1.92
2022-09-01T00:29:37.881Z,1.95
2022-09-01T00:32:10.934Z,1.88
2022-09-01T00:34:37.797Z,2.05
2022-09-01T00:37:04.839Z,2.35
2022-09-01T00:39:32.350Z,2.60
2022-09-01T00:41:59.679Z,2.17
2022-09-01T00:44:29.671Z,1.83
2022-09-01T00:46:58.892Z,2.03
2022-09-01T00:49:39.025Z,2.05
2022-09-01T00:52:15.371Z,1.70
2022-09-01T00:54:45.884Z,2.40
2022-09-01T00:57:14.070Z,2.05
2022-09-01T00:59:49.567Z,2.13
2022-09-01T01:02:16.904Z,2.30
2022-09-01T01:04:44.245Z,2.30
2022-09-01T01:07:13.185Z,2.35
2022-09-01T01:09:43.804Z,2.22
2022-09-01T01:12:18.763Z,2.60
2022-09-01T01:14:50.693Z,2.00
2022-09-01T01:17:20.900Z,2.20
2022-09-01T01:20:11.524Z,2.25
2022-09-01T01:23:02.412Z,2.03
2022-09-01T01:25:38.600Z,2.40
2022-09-01T01:28:05.682Z,2.15
2022-09-01T01:30:33.852Z,2.20
2022-09-01T01:33:01.950Z,2.50
2022-09-01T01:35:31.963Z,2.60
2022-09-01T01:37:59.108Z,2.47
2022-09-01T01:40:26.233Z,2.28
2022-09-01T01:42:54.404Z,2.05
2022-09-01T01:45:23.945Z,2.30
2022-09-01T01:47:53.603Z,2.03
2022-09-01T01:50:35.998Z,2.22
2022-09-01T01:53:11.328Z,2.20
2022-09-01T01:55:40.250Z,2.10
2022-09-01T01:58:12.023Z,2.15
2022-09-01T02:00:39.684Z,2.05
2022-09-01T02:03:07.640Z,2.30
2022-09-01T02:05:36.496Z,2.00
2022-09-01T02:08:07.562Z,2.30
2022-09-01T02:10:42.218Z,1.67
2022-09-01T02:13:16.250Z,2.10
2022-09-01T02:15:56.433Z,1.95
2022-09-01T02:18:31.451Z,2.03
2022-09-01T02:21:01.252Z,2.00
2022-09-01T02:23:30.132Z,1.90
2022-09-01T02:26:16.138Z,1.90
2022-09-01T02:28:54.442Z,1.58
2022-09-01T02:31:23.342Z,2.20
2022-09-01T02:33:50.719Z,1.90
2022-09-01T02:36:19.739Z,1.60
2022-09-01T02:38:53.666Z,1.80
2022-09-01T02:41:29.480Z,1.83
2022-09-01T02:43:57.266Z,1.88
2022-09-01T02:46:24.570Z,1.55
2022-09-01T02:48:52.166Z,1.58
2022-09-01T02:51:22.603Z,1.80
2022-09-01T02:53:55.114Z,1.77
2022-09-01T02:56:25.447Z,1.83
2022-09-01T02:58:53.784Z,1.75
2022-09-01T03:01:32.058Z,1.55
2022-09-01T03:04:03.359Z,1.95
2022-09-01T03:06:34.265Z,1.90
2022-09-01T03:09:02.378Z,1.55
2022-09-01T03:11:31.987Z,1.65
2022-09-01T03:13:59.530Z,1.90
2022-09-01T03:16:26.598Z,1.90
2022-09-01T03:18:53.828Z,1.90
2022-09-01T03:21:21.577Z,2.00
2022-09-01T03:23:50.122Z,1.98
2022-09-01T03:26:21.458Z,1.80
2022-09-01T03:28:52.376Z,1.90
2022-09-01T03:31:21.325Z,2.10
2022-09-01T03:33:48.644Z,2.08
2022-09-01T03:36:21.635Z,1.90
2022-09-01T03:38:50.955Z,1.85
2022-09-01T03:41:25.204Z,2.28
2022-09-01T03:43:58.185Z,2.08
2022-09-01T03:46:26.754Z,2.00
2022-09-01T03:48:56.016Z,2.05
2022-09-01T03:51:24.459Z,2.15
2022-09-01T03:53:57.605Z,2.20
2022-09-01T03:56:28.167Z,2.63
2022-09-01T03:58:57.840Z,1.77
2022-09-01T04:01:27.066Z,1.90
2022-09-01T04:03:54.548Z,2.30
2022-09-01T04:06:24.490Z,1.80
2022-09-01T04:08:57.895Z,1.95
2022-09-01T04:11:25.421Z,2.42
2022-09-01T04:13:53.310Z,1.98
2022-09-01T04:16:40.732Z,2.38
2022-09-01T04:19:20.421Z,2.33
2022-09-01T04:21:52.202Z,2.15
2022-09-01T04:24:29.547Z,2.30
2022-09-01T04:27:00.251Z,2.08
2022-09-01T04:29:27.764Z,1.85
2022-09-01T04:32:05.788Z,2.15
2022-09-01T04:34:38.637Z,1.95
2022-09-01T04:37:15.301Z,2.13
2022-09-01T04:39:53.677Z,1.77
2022-09-01T04:42:24.219Z,2.90
2022-09-01T04:44:53.691Z,2.33
2022-09-01T04:47:31.660Z,2.53
2022-09-01T04:50:13.065Z,2.20
2022-09-01T04:52:43.176Z,2.08
2022-09-01T04:55:17.967Z,2.38
2022-09-01T04:57:47.615Z,2.30
2022-09-01T05:00:23.981Z,2.20
2022-09-01T05:03:03.452Z,2.30
2022-09-01T05:05:44.927Z,2.20
2022-09-01T05:08:24.698Z,2.35
2022-09-01T05:10:53.901Z,2.40
2022-09-01T05:13:23.690Z,2.58
2022-09-01T05:16:02.375Z,2.20
2022-09-01T05:18:29.935Z,2.17
2022-09-01T05:20:57.602Z,2.63
2022-09-01T05:23:26.541Z,2.38
2022-09-01T05:25:54.974Z,2.17
2022-09-01T05:28:25.920Z,2.30
2022-09-01T05:30:55.707Z,2.40
2022-09-01T05:33:22.854Z,4.72
2022-09-01T05:35:56.143Z,2.33
2022-09-01T05:38:24.427Z,3.08
2022-09-01T05:41:04.506Z,2.90
2022-09-01T05:43:32.662Z,2.03
2022-09-01T05:46:06.906Z,2.35
2022-09-01T05:48:36.285Z,2.38
2022-09-01T05:51:27.388Z,2.28
2022-09-01T05:53:59.369Z,1.83
2022-09-01T05:56:28.581Z,2.50
2022-09-01T06:01:50.245Z,2.42
2022-09-01T06:04:17.868Z,2.53
2022-09-01T06:07:05.975Z,3.50
2022-09-01T06:09:40.368Z,2.70
2022-09-01T06:12:18.112Z,2.53
2022-09-01T06:14:47.612Z,2.28
2022-09-01T06:17:16.705Z,3.10
2022-09-01T06:19:44.574Z,2.65
2022-09-01T06:22:12.320Z,2.75
2022-09-01T06:24:40.231Z,2.35
2022-09-01T06:27:10.940Z,2.97
2022-09-01T06:29:39.885Z,2.60
2022-09-01T06:32:10.617Z,3.05
2022-09-01T06:34:44.746Z,3.05
2022-09-01T06:37:13.450Z,3.20
2022-09-01T06:39:40.462Z,2.97
2022-09-01T06:42:09.572Z,2.78
2022-09-01T06:44:40.615Z,3.22
2022-09-01T06:47:09.138Z,3.53
2022-09-01T06:49:36.833Z,3.33
2022-09-01T06:52:05.932Z,3.47
2022-09-01T06:54:34.759Z,3.10
2022-09-01T06:59:54.192Z,3.03
2022-09-01T07:02:24.474Z,2.97
2022-09-01T07:04:54.148Z,3.15
2022-09-01T07:10:25.395Z,3.42
2022-09-01T07:13:11.848Z,3.95
2022-09-01T07:18:31.803Z,3.65
2022-09-01T07:21:35.953Z,3.83
2022-09-01T07:24:08.077Z,3.63
2022-09-01T07:26:36.149Z,4.32
2022-09-01T07:29:06.478Z,3.63
2022-09-01T07:34:46.076Z,4.18
2022-09-01T07:45:31.836Z,5.40
2022-09-01T07:48:03.518Z,4.20
2022-09-01T07:53:28.528Z,4.80
2022-09-01T07:55:56.366Z,5.55
2022-09-01T07:58:26.859Z,4.10
2022-09-01T08:00:55.390Z,4.35
2022-09-01T08:03:25.058Z,4.25
2022-09-01T08:05:57.842Z,4.18
2022-09-01T08:08:29.349Z,4.50
2022-09-01T08:11:04.258Z,4.40
2022-09-01T08:13:35.994Z,4.13
2022-09-01T08:16:16.276Z,3.65
2022-09-01T08:18:49.167Z,5.15
2022-09-01T08:21:21.970Z,4.28
2022-09-01T08:23:50.059Z,4.18
2022-09-01T08:26:19.448Z,4.25
2022-09-01T08:28:54.341Z,4.45
2022-09-01T08:31:22.924Z,4.38
2022-09-01T08:33:51.513Z,4.40
2022-09-01T08:36:23.804Z,4.43
2022-09-01T08:38:52.786Z,5.20
2022-09-01T08:41:40.368Z,4.55
2022-09-01T08:44:33.959Z,4.85
2022-09-01T08:47:12.840Z,4.90
2022-09-01T08:49:46.954Z,5.40
2022-09-01T08:52:27.922Z,4.95
2022-09-01T08:55:14.445Z,4.63
2022-09-01T08:57:45.405Z,4.10
2022-09-01T09:00:17.910Z,4.90
2022-09-01T09:03:02.704Z,4.35
2022-09-01T09:05:54.359Z,4.05
2022-09-01T09:09:01.384Z,4.20
2022-09-01T09:11:48.760Z,4.30
2022-09-01T09:14:40.937Z,4.32
2022-09-01T09:17:08.417Z,4.22
2022-09-01T09:19:41.106Z,3.70
2022-09-01T09:22:11.694Z,4.47
2022-09-01T09:24:52.563Z,5.00
2022-09-01T09:27:26.855Z,4.80
2022-09-01T09:30:20.661Z,4.28
2022-09-01T09:35:50.917Z,4.30
2022-09-01T09:38:28.422Z,4.38
2022-09-01T09:41:18.793Z,3.90
2022-09-01T09:43:58.716Z,4.25
2022-09-01T09:46:28.438Z,4.15
2022-09-01T09:49:16.543Z,4.50
2022-09-01T09:51:49.202Z,4.05
2022-09-01T09:54:23.078Z,4.40
2022-09-01T09:57:22.133Z,4.93
2022-09-01T10:00:00.701Z,4.32
2022-09-01T10:02:46.163Z,4.43
2022-09-01T10:05:37.200Z,3.60
2022-09-01T10:08:07.179Z,4.38
2022-09-01T10:10:39.768Z,4.18
2022-09-01T10:13:13.859Z,3.65
2022-09-01T10:15:49.187Z,3.85
2022-09-01T10:18:28.759Z,4.22
2022-09-01T10:21:04.491Z,4.07
2022-09-01T10:23:35.055Z,3.70
2022-09-01T10:26:13.593Z,4.30
2022-09-01T10:28:52.947Z,4.22
2022-09-01T10:31:21.669Z,4.20
2022-09-01T10:33:50.000Z,3.85
2022-09-01T10:36:18.138Z,3.85
2022-09-01T10:38:53.614Z,3.47
2022-09-01T10:41:43.484Z,3.28
2022-09-01T10:44:19.398Z,3.70
2022-09-01T10:46:51.472Z,3.72
2022-09-01T10:49:28.110Z,3.58
2022-09-01T10:52:03.650Z,3.50
2022-09-01T10:54:51.053Z,2.95
2022-09-01T10:57:44.635Z,3.63
2022-09-01T11:00:39.852Z,3.58
2022-09-01T11:06:12.948Z,3.65
2022-09-01T11:08:58.074Z,3.03
2022-09-01T11:11:49.384Z,3.15
2022-09-01T11:14:23.135Z,2.78
2022-09-01T11:17:14.515Z,2.70
2022-09-01T11:20:10.531Z,2.72
2022-09-01T11:22:45.094Z,3.08
2022-09-01T11:25:40.778Z,2.35
2022-09-01T11:28:15.011Z,3.05
2022-09-01T11:31:04.077Z,3.15
2022-09-01T11:33:52.613Z,3.08
2022-09-01T11:36:29.207Z,3.00
2022-09-01T11:39:04.243Z,2.92
2022-09-01T11:41:41.129Z,2.75
2022-09-01T11:44:24.702Z,3.35
2022-09-01T11:46:54.457Z,2.88
2022-09-01T11:49:31.645Z,3.22
2022-09-01T11:52:00.646Z,3.10
2022-09-01T11:54:30.259Z,2.97
2022-09-01T11:56:57.167Z,3.15
2022-09-01T11:59:35.629Z,2.75
2022-09-01T12:02:04.291Z,2.80
2022-09-01T12:04:37.673Z,2.20
2022-09-01T12:07:12.606Z,2.67
2022-09-01T12:09:46.609Z,2.25
2022-09-01T12:12:39.231Z,2.20
2022-09-01T12:15:11.912Z,2.70
2022-09-01T12:17:40.751Z,2.70
2022-09-01T12:20:32.689Z,2.35
2022-09-01T12:23:02.691Z,2.28
2022-09-01T12:25:34.706Z,2.33
2022-09-01T12:28:04.229Z,2.67
2022-09-01T12:30:35.503Z,2.30
2022-09-01T12:33:23.623Z,2.60
2022-09-01T12:36:21.842Z,2.20
2022-09-01T12:38:49.215Z,2.50
2022-09-01T12:41:39.040Z,2.22
2022-09-01T12:44:30.374Z,2.50
2022-09-01T12:47:01.145Z,2.10
2022-09-01T12:49:36.039Z,2.50
2022-09-01T12:52:10.850Z,3.90
2022-09-01T12:54:38.355Z,3.40
2022-09-01T12:57:06.408Z,2.83
2022-09-01T12:59:36.110Z,2.17
2022-09-01T13:02:34.850Z,2.60
2022-09-01T13:05:32.750Z,2.30
2022-09-01T13:08:08.789Z,2.00
2022-09-01T13:10:43.650Z,2.22
2022-09-01T13:13:12.639Z,2.30
2022-09-01T13:15:56.002Z,2.33
2022-09-01T13:18:25.021Z,1.92
2022-09-01T13:20:53.299Z,1.80
2022-09-01T13:23:21.363Z,1.70
2022-09-01T13:25:48.706Z,1.60
2022-09-01T13:28:17.288Z,1.80
2022-09-01T13:30:48.201Z,2.00
2022-09-01T13:33:19.630Z,2.30
2022-09-01T13:35:48.013Z,1.83
2022-09-01T13:38:16.853Z,2.05
2022-09-01T13:40:46.293Z,1.90
2022-09-01T13:43:20.070Z,2.00
2022-09-01T13:45:47.546Z,2.10
2022-09-01T13:48:16.328Z,1.67
2022-09-01T13:53:34.450Z,1.70
2022-09-01T13:56:01.839Z,2.22
2022-09-01T13:58:28.901Z,1.80
2022-09-01T14:00:59.560Z,1.77
2022-09-01T14:03:26.679Z,2.00
2022-09-01T14:05:54.498Z,1.77
2022-09-01T14:08:22.878Z,1.83
2022-09-01T14:10:52.781Z,1.70
2022-09-01T14:13:22.460Z,2.28
2022-09-01T14:15:50.068Z,1.80
2022-09-01T14:18:17.830Z,2.15
2022-09-01T14:20:47.802Z,1.90
2022-09-01T14:23:16.140Z,1.50
2022-09-01T14:25:46.505Z,2.20
2022-09-01T14:28:14.063Z,1.70
2022-09-01T14:30:43.626Z,1.80
2022-09-01T14:33:11.313Z,1.65
2022-09-01T14:35:44.356Z,2.25
2022-09-01T14:38:11.986Z,1.60
2022-09-01T14:40:39.316Z,1.80
2022-09-01T14:43:10.032Z,1.73
2022-09-01T14:45:38.025Z,1.90
2022-09-01T14:48:05.461Z,1.80
2022-09-01T14:50:33.863Z,1.73
2022-09-01T14:53:02.859Z,1.88
2022-09-01T14:55:30.970Z,1.60
2022-09-01T14:57:59.901Z,1.50
2022-09-01T15:00:27.599Z,1.58
2022-09-01T15:02:55.992Z,1.88
2022-09-01T15:05:24.126Z,1.52
2022-09-01T15:07:52.107Z,1.70
2022-09-01T15:10:25.263Z,1.45
2022-09-01T15:12:55.172Z,1.70
2022-09-01T15:15:22.793Z,1.90
2022-09-01T15:17:50.138Z,1.60
2022-09-01T15:20:35.765Z,1.88
2022-09-01T15:23:03.661Z,1.85
2022-09-01T15:25:30.651Z,2.00
2022-09-01T15:27:57.519Z,1.70
2022-09-01T15:30:25.343Z,1.88
2022-09-01T15:32:57.630Z,1.75
2022-09-01T15:35:25.381Z,1.70
2022-09-01T15:37:52.506Z,1.60
2022-09-01T15:40:20.363Z,1.83
2022-09-01T15:42:47.736Z,1.90
2022-09-01T15:45:17.895Z,1.60
2022-09-01T15:47:46.189Z,1.55
2022-09-01T15:50:16.883Z,1.55
2022-09-01T15:52:54.270Z,1.70
2022-09-01T15:55:25.769Z,1.75
2022-09-01T15:57:55.004Z,1.83
2022-09-01T16:00:25.687Z,1.67
2022-09-01T16:02:54.647Z,1.90
2022-09-01T16:05:30.110Z,1.85
2022-09-01T16:07:57.110Z,1.80
2022-09-01T16:10:24.199Z,1.92
2022-09-01T16:12:52.671Z,2.03
2022-09-01T16:15:22.492Z,1.83
2022-09-01T16:18:14.100Z,2.78
2022-09-01T16:20:54.167Z,2.00
2022-09-01T16:23:32.689Z,1.92
2022-09-01T16:26:00.972Z,1.65
2022-09-01T16:28:36.046Z,1.48
2022-09-01T16:31:08.084Z,1.75
2022-09-01T16:33:39.374Z,1.95
2022-09-01T16:36:17.401Z,1.70
2022-09-01T16:38:50.161Z,1.55
2022-09-01T16:41:44.786Z,1.55
2022-09-01T16:44:37.994Z,1.50
2022-09-01T16:47:11.268Z,1.60
2022-09-01T16:49:57.036Z,1.77
2022-09-01T16:52:28.903Z,1.63
2022-09-01T16:55:01.896Z,1.73
2022-09-01T16:58:19.072Z,1.70
2022-09-01T17:01:02.233Z,1.90
2022-09-01T17:03:42.838Z,1.63
2022-09-01T17:06:22.475Z,1.98
2022-09-01T17:09:22.396Z,1.70
2022-09-01T17:11:53.721Z,1.45
2022-09-01T17:14:38.163Z,1.70
2022-09-01T17:17:11.934Z,1.55
2022-09-01T17:19:41.262Z,1.80
2022-09-01T17:22:12.560Z,1.88
2022-09-01T17:24:47.409Z,1.90
2022-09-01T17:27:21.512Z,1.58
2022-09-01T17:29:51.939Z,1.63
2022-09-01T17:32:39.837Z,1.70
2022-09-01T17:35:24.993Z,1.85
2022-09-01T17:38:29.349Z,1.80
2022-09-01T17:41:30.356Z,1.50
2022-09-01T17:44:18.071Z,1.88
2022-09-01T17:47:06.025Z,1.90
2022-09-01T17:50:12.081Z,1.45
2022-09-01T17:52:55.768Z,1.73
2022-09-01T17:56:00.528Z,1.77
2022-09-01T17:58:48.292Z,1.80
2022-09-01T18:01:24.152Z,1.60
2022-09-01T18:04:06.103Z,2.08
2022-09-01T18:07:01.951Z,1.70
2022-09-01T18:09:32.311Z,1.70
2022-09-01T18:12:10.238Z,2.20
2022-09-01T18:15:10.246Z,1.85
2022-09-01T18:17:52.406Z,1.88
2022-09-01T18:20:29.767Z,2.35
2022-09-01T18:23:12.493Z,2.00
2022-09-01T18:26:20.162Z,1.70
2022-09-01T18:28:50.678Z,1.80
2022-09-01T18:31:35.585Z,1.80
2022-09-01T18:34:14.263Z,2.00
2022-09-01T18:37:02.282Z,1.77
2022-09-01T18:39:53.500Z,1.90
2022-09-01T18:42:29.079Z,1.80
2022-09-01T18:45:15.211Z,1.88
2022-09-01T18:48:15.038Z,1.73
2022-09-01T18:51:12.118Z,2.13
2022-09-01T18:54:04.389Z,1.80
2022-09-01T18:56:55.987Z,2.15
2022-09-01T18:59:46.095Z,1.67
2022-09-01T19:02:34.816Z,1.60
2022-09-01T19:05:41.669Z,1.88
2022-09-01T19:08:22.171Z,1.73
2022-09-01T19:11:14.153Z,1.85
2022-09-01T19:14:00.458Z,1.88
2022-09-01T19:17:02.477Z,2.08
2022-09-01T19:19:35.096Z,1.67
2022-09-01T19:22:02.503Z,1.88
2022-09-01T19:24:42.559Z,1.90
2022-09-01T19:27:17.190Z,2.15
2022-09-01T19:29:56.578Z,1.90
2022-09-01T19:32:27.496Z,1.52
2022-09-01T19:35:18.255Z,1.63
2022-09-01T19:37:50.670Z,1.80
2022-09-01T19:40:30.741Z,1.70
2022-09-01T19:43:13.630Z,1.70
2022-09-01T19:45:48.245Z,1.70
2022-09-01T19:48:26.673Z,1.85
2022-09-01T19:50:55.828Z,1.50
2022-09-01T19:53:28.672Z,1.80
2022-09-01T19:56:01.759Z,2.63
2022-09-01T19:58:49.825Z,2.00
2022-09-01T20:01:26.200Z,1.70
2022-09-01T20:03:59.310Z,1.80
2022-09-01T20:06:36.503Z,2.10
2022-09-01T20:09:18.127Z,1.63
2022-09-01T20:11:57.218Z,1.77
2022-09-01T20:14:49.352Z,1.60
2022-09-01T20:17:33.352Z,1.90
2022-09-01T20:20:25.623Z,1.90
2022-09-01T20:23:10.589Z,2.58
2022-09-01T20:25:48.803Z,1.50
2022-09-01T20:28:39.536Z,2.15
2022-09-01T20:31:12.554Z,2.10
2022-09-01T20:33:52.926Z,1.83
2022-09-01T20:36:28.370Z,2.03
2022-09-01T20:39:40.905Z,1.92
2022-09-01T20:42:31.370Z,1.80
2022-09-01T20:45:20.770Z,2.03
2022-09-01T20:47:54.041Z,1.80
2022-09-01T20:50:30.770Z,1.92
2022-09-01T20:53:26.264Z,1.90
2022-09-01T20:56:02.921Z,1.73
2022-09-01T20:59:21.299Z,1.95
2022-09-01T21:02:25.972Z,1.88
2022-09-01T21:05:01.166Z,2.03
2022-09-01T21:07:40.712Z,1.52
2022-09-01T21:10:24.150Z,1.95
2022-09-01T21:12:52.599Z,1.88
2022-09-01T21:15:25.059Z,2.00
2022-09-01T21:18:19.674Z,2.15
2022-09-01T21:21:10.823Z,2.17
2022-09-01T21:23:37.645Z,2.20
2022-09-01T21:26:05.660Z,1.90
2022-09-01T21:28:33.888Z,2.03
2022-09-01T21:31:02.178Z,2.40
2022-09-01T21:33:31.959Z,2.40
2022-09-01T21:36:00.588Z,2.17
2022-09-01T21:38:29.513Z,2.10
2022-09-01T21:40:59.404Z,1.95
2022-09-01T21:43:31.806Z,2.50
2022-09-01T21:45:59.549Z,2.50
2022-09-01T21:48:26.570Z,2.55
2022-09-01T21:50:56.347Z,2.08
2022-09-01T21:53:23.703Z,2.33
2022-09-01T21:55:50.847Z,2.20
2022-09-01T21:58:18.034Z,2.00
2022-09-01T22:00:44.937Z,2.50
2022-09-01T22:03:12.373Z,2.40
2022-09-01T22:05:44.125Z,2.50
2022-09-01T22:08:13.315Z,2.55
2022-09-01T22:10:51.626Z,2.72
2022-09-01T22:13:20.555Z,2.75
2022-09-01T22:15:50.328Z,2.47
2022-09-01T22:18:19.870Z,2.53
2022-09-01T22:20:47.617Z,2.90
2022-09-01T22:23:16.479Z,2.92
2022-09-01T22:25:46.410Z,2.72
2022-09-01T22:28:14.245Z,3.10
2022-09-01T22:30:46.672Z,3.25
2022-09-01T22:33:14.296Z,3.08
2022-09-01T22:35:43.963Z,2.97
2022-09-01T22:38:11.714Z,3.35
2022-09-01T22:40:51.436Z,3.00
2022-09-01T22:43:19.403Z,3.60
2022-09-01T22:45:48.361Z,3.53
2022-09-01T22:48:17.762Z,3.28
2022-09-01T22:50:45.573Z,4.00
2022-09-01T22:53:15.159Z,3.30
2022-09-01T22:55:45.143Z,3.38
2022-09-01T22:58:13.089Z,3.10
2022-09-01T23:00:48.528Z,3.33
2022-09-01T23:03:18.297Z,3.65
2022-09-01T23:05:46.341Z,3.60
2022-09-01T23:08:14.179Z,3.78
2022-09-01T23:10:41.310Z,3.30
2022-09-01T23:13:08.349Z,3.28
2022-09-01T23:15:35.839Z,3.90
2022-09-01T23:18:02.943Z,3.97
2022-09-01T23:20:30.185Z,4.05
2022-09-01T23:22:57.071Z,3.83
2022-09-01T23:25:24.693Z,3.92
2022-09-01T23:27:51.521Z,3.58
2022-09-01T23:30:18.659Z,4.40
2022-09-01T23:32:45.818Z,3.72
2022-09-01T23:35:13.942Z,3.70
2022-09-01T23:37:43.914Z,3.60
2022-09-01T23:40:11.258Z,3.80
2022-09-01T23:42:38.584Z,4.15
2022-09-01T23:45:06.230Z,4.30
2022-09-01T23:47:33.200Z,4.05
2022-09-01T23:50:00.268Z,4.10
2022-09-01T23:52:27.298Z,4.07
2022-09-01T23:54:54.613Z,4.10
2022-09-01T23:57:21.720Z,4.13
2022-09-01T23:59:48.865Z,4.10
